Terminal Aerodrome Forecast
Issued by NWS

Home | Current Version | Previous Version | Text Only | Print | Product List | Glossary On
Versions: 1 2 3 4 5 6 7 8 9 10 11 12 13 14 15 16 17 18 19
000
FTUS41 KBGM 262334
TAFITH
TAF
KITH 262334Z 2700/2724 18007KT P6SM BKN100
     FM271500 21008KT P6SM -SHRA BKN040 OVC070
     FM272000 20007KT P6SM BKN050=

USA.gov is the U.S. government's official web portal to all federal, state and local government web resources and services.